createdAt,value
2023-04-19T00:00:11.853Z,6.38
2023-04-19T00:02:43.921Z,5.93
2023-04-19T00:05:22.995Z,7.37
2023-04-19T00:07:53.827Z,7.95
2023-04-19T00:10:24.352Z,5.60
2023-04-19T00:12:55.687Z,5.68
2023-04-19T00:15:26.509Z,5.68
2023-04-19T00:17:56.898Z,5.30
2023-04-19T00:20:27.329Z,6.10
2023-04-19T00:22:59.883Z,4.57
2023-04-19T00:25:32.160Z,4.57
2023-04-19T00:28:02.599Z,3.90
2023-04-19T00:30:33.828Z,3.67
2023-04-19T00:33:04.190Z,4.22
2023-04-19T00:35:35.468Z,4.40
2023-04-19T00:38:05.825Z,3.78
2023-04-19T00:40:36.490Z,3.60
2023-04-19T00:43:08.183Z,2.92
2023-04-19T00:45:39.378Z,3.50
2023-04-19T00:48:10.530Z,2.83
2023-04-19T00:50:42.001Z,2.65
2023-04-19T00:53:12.990Z,2.83
2023-04-19T00:55:44.618Z,2.45
2023-04-19T00:58:15.216Z,2.80
2023-04-19T01:00:46.921Z,2.67
2023-04-19T01:03:18.526Z,2.15
2023-04-19T01:05:50.123Z,2.40
2023-04-19T01:08:20.586Z,2.30
2023-04-19T01:10:51.131Z,2.30
2023-04-19T01:13:22.609Z,2.45
2023-04-19T01:15:53.134Z,2.00
2023-04-19T01:18:26.069Z,1.90
2023-04-19T01:20:57.084Z,2.10
2023-04-19T01:23:27.838Z,2.17
2023-04-19T01:25:59.281Z,1.80
2023-04-19T01:28:31.341Z,2.15
2023-04-19T01:31:01.968Z,1.65
2023-04-19T01:33:32.509Z,1.92
2023-04-19T01:36:03.174Z,2.00
2023-04-19T01:38:33.918Z,2.00
2023-04-19T01:41:04.657Z,2.10
2023-04-19T01:43:35.079Z,2.97
2023-04-19T01:46:06.120Z,2.10
2023-04-19T01:48:36.525Z,1.67
2023-04-19T01:51:07.650Z,1.77
2023-04-19T01:53:38.171Z,1.80
2023-04-19T01:56:08.731Z,1.88
2023-04-19T01:58:40.196Z,1.70
2023-04-19T02:01:14.097Z,1.50
2023-04-19T02:03:44.859Z,1.67
2023-04-19T02:06:16.284Z,2.25
2023-04-19T02:08:47.603Z,1.50
2023-04-19T02:11:18.334Z,1.58
2023-04-19T02:13:50.173Z,1.65
2023-04-19T02:16:20.699Z,1.55
2023-04-19T02:18:53.673Z,2.08
2023-04-19T02:21:24.677Z,1.50
2023-04-19T02:23:55.061Z,1.15
2023-04-19T02:26:26.180Z,1.50
2023-04-19T02:28:56.500Z,1.13
2023-04-19T02:31:27.943Z,1.20
2023-04-19T02:33:58.358Z,1.50
2023-04-19T02:36:29.657Z,1.17
2023-04-19T02:39:00.875Z,1.40
2023-04-19T02:41:31.637Z,1.70
2023-04-19T02:46:34.757Z,1.20
2023-04-19T02:49:05.457Z,1.13
2023-04-19T02:51:35.891Z,1.00
2023-04-19T02:54:07.062Z,0.93
2023-04-19T02:56:37.495Z,1.40
2023-04-19T02:59:08.502Z,1.20
2023-04-19T03:01:38.991Z,1.30
2023-04-19T03:04:10.380Z,1.20
2023-04-19T03:06:43.657Z,0.90
2023-04-19T03:09:15.082Z,0.98
2023-04-19T03:11:45.548Z,1.25
2023-04-19T03:14:16.438Z,1.40
2023-04-19T03:16:47.460Z,1.17
2023-04-19T03:19:18.175Z,1.50
2023-04-19T03:21:53.097Z,1.70
2023-04-19T03:24:32.208Z,1.77
2023-04-19T03:27:13.273Z,1.30
2023-04-19T03:29:47.267Z,1.70
2023-04-19T03:34:48.816Z,1.50
2023-04-19T03:37:19.435Z,1.60
2023-04-19T03:39:50.049Z,1.83
2023-04-19T03:42:28.761Z,2.25
2023-04-19T03:45:07.475Z,2.58
2023-04-19T03:47:42.895Z,2.00
2023-04-19T03:50:13.802Z,2.45
2023-04-19T03:52:48.803Z,2.20
2023-04-19T03:55:19.990Z,1.98
2023-04-19T03:57:50.826Z,2.25
2023-04-19T04:00:29.439Z,2.22
2023-04-19T04:03:03.340Z,2.25
2023-04-19T04:05:34.936Z,2.50
2023-04-19T04:08:05.445Z,1.65
2023-04-19T04:10:36.712Z,1.70
2023-04-19T04:13:07.668Z,2.03
2023-04-19T04:15:47.479Z,1.88
2023-04-19T04:18:19.883Z,1.83
2023-04-19T04:20:51.272Z,2.10
2023-04-19T04:23:23.355Z,2.40
2023-04-19T04:26:06.758Z,2.20
2023-04-19T04:28:53.765Z,1.80
2023-04-19T04:31:24.228Z,2.00
2023-04-19T04:33:56.622Z,2.10
2023-04-19T04:36:31.281Z,2.15
2023-04-19T04:39:03.393Z,2.55
2023-04-19T04:41:33.847Z,2.67
2023-04-19T04:44:12.488Z,2.63
2023-04-19T04:46:45.761Z,3.13
2023-04-19T04:49:21.598Z,2.60
2023-04-19T04:51:52.774Z,3.88
2023-04-19T04:54:24.692Z,3.70
2023-04-19T04:56:56.220Z,3.70
2023-04-19T04:59:26.697Z,3.60
2023-04-19T05:01:57.092Z,3.40
2023-04-19T05:04:28.532Z,9.02
2023-04-19T05:06:59.332Z,6.85
2023-04-19T05:09:30.853Z,6.78
2023-04-19T05:12:01.574Z,6.45
2023-04-19T05:14:33.353Z,15.60
2023-04-19T05:17:07.246Z,6.88
2023-04-19T05:19:38.789Z,7.10
2023-04-19T05:22:10.548Z,5.90
2023-04-19T05:24:42.796Z,6.13
2023-04-19T05:27:14.309Z,6.15
2023-04-19T05:29:48.676Z,11.48
2023-04-19T05:32:19.232Z,8.63
2023-04-19T05:34:56.022Z,6.90
2023-04-19T05:37:26.443Z,8.95
2023-04-19T05:39:57.002Z,9.30
2023-04-19T05:42:28.368Z,12.43
2023-04-19T05:47:42.459Z,19.45
2023-04-19T05:50:13.788Z,21.70
2023-04-19T05:52:50.695Z,16.15
2023-04-19T05:55:23.186Z,14.00
2023-04-19T05:57:53.937Z,12.57
2023-04-19T06:00:27.982Z,11.18
2023-04-19T06:03:05.921Z,8.98
2023-04-19T06:05:37.063Z,8.05
2023-04-19T06:08:08.671Z,8.55
2023-04-19T06:10:51.906Z,8.52
2023-04-19T06:13:27.307Z,7.10
2023-04-19T06:15:57.749Z,6.95
2023-04-19T06:18:29.002Z,6.38
2023-04-19T06:20:59.447Z,6.60
2023-04-19T06:23:30.785Z,5.18
2023-04-19T06:26:01.309Z,5.53
2023-04-19T06:28:31.569Z,4.93
2023-04-19T06:31:02.031Z,5.55
2023-04-19T06:33:32.545Z,4.40
2023-04-19T06:36:02.966Z,4.82
2023-04-19T06:38:33.400Z,3.80
2023-04-19T06:41:04.948Z,4.30
2023-04-19T06:43:35.370Z,5.38
2023-04-19T06:46:06.470Z,3.80
2023-04-19T06:48:37.750Z,3.55
2023-04-19T06:51:08.601Z,3.78
2023-04-19T06:53:39.523Z,2.80
2023-04-19T06:56:11.548Z,3.05
2023-04-19T06:58:42.029Z,2.80
2023-04-19T07:01:13.428Z,2.53
2023-04-19T07:03:45.095Z,2.38
2023-04-19T07:06:15.581Z,2.53
2023-04-19T07:08:50.111Z,1.80
2023-04-19T07:19:39.077Z,2.22
2023-04-19T07:22:09.629Z,2.22
2023-04-19T07:24:41.822Z,2.08
2023-04-19T07:27:12.858Z,2.95
2023-04-19T07:29:43.075Z,2.10
2023-04-19T07:32:15.212Z,1.77
2023-04-19T07:34:47.109Z,1.88
2023-04-19T07:37:17.787Z,2.08
2023-04-19T07:39:48.080Z,1.85
2023-04-19T07:42:18.628Z,1.40
2023-04-19T07:44:49.932Z,1.45
2023-04-19T07:47:20.449Z,1.58
2023-04-19T07:49:55.157Z,1.23
2023-04-19T07:52:25.521Z,1.42
2023-04-19T07:54:55.942Z,1.25
2023-04-19T07:57:26.933Z,1.30
2023-04-19T07:59:59.577Z,1.50
2023-04-19T08:02:30.473Z,1.13
2023-04-19T08:05:01.324Z,1.27
2023-04-19T08:07:32.271Z,1.00
2023-04-19T08:10:02.748Z,1.00
2023-04-19T08:12:40.558Z,1.10
2023-04-19T08:15:49.078Z,1.00
2023-04-19T08:18:06.536Z,1.27
2023-04-19T08:20:38.244Z,1.30
2023-04-19T08:23:20.481Z,1.23
2023-04-19T08:25:52.468Z,1.10
2023-04-19T08:28:22.824Z,1.00
2023-04-19T08:30:53.862Z,1.10
2023-04-19T08:33:24.304Z,1.10
2023-04-19T08:35:54.911Z,1.10
2023-04-19T08:38:25.495Z,1.00
2023-04-19T08:40:57.741Z,1.08
2023-04-19T08:43:34.890Z,0.90
2023-04-19T08:48:50.370Z,1.10
2023-04-19T08:51:21.535Z,1.60
2023-04-19T08:53:52.596Z,1.13
2023-04-19T08:56:34.855Z,1.27
2023-04-19T09:01:44.544Z,3.42
2023-04-19T09:04:31.494Z,3.30
2023-04-19T09:07:05.706Z,6.82
2023-04-19T09:09:45.683Z,4.25
2023-04-19T09:12:22.436Z,5.38
2023-04-19T09:17:26.825Z,5.80
2023-04-19T09:19:57.603Z,8.43
2023-04-19T09:22:29.081Z,8.23
2023-04-19T09:25:34.325Z,7.03
2023-04-19T09:27:52.800Z,32.67
2023-04-19T09:30:32.278Z,7.78
2023-04-19T09:33:07.733Z,10.27
2023-04-19T09:35:49.740Z,10.15
2023-04-19T09:38:20.650Z,8.55
2023-04-19T09:40:52.377Z,9.65
2023-04-19T09:43:55.887Z,7.55
2023-04-19T09:46:37.103Z,7.78
2023-04-19T09:49:30.685Z,7.53
2023-04-19T09:52:08.291Z,7.88
2023-04-19T09:54:39.776Z,8.05
2023-04-19T09:57:11.061Z,8.23
2023-04-19T09:59:41.583Z,7.07
2023-04-19T10:02:15.151Z,7.50
2023-04-19T10:10:11.660Z,7.65
2023-04-19T10:12:59.137Z,6.20
2023-04-19T10:18:11.351Z,6.68
2023-04-19T10:20:52.026Z,7.57
2023-04-19T10:23:23.974Z,7.30
2023-04-19T10:25:59.408Z,6.72
2023-04-19T10:28:33.033Z,6.28
2023-04-19T10:31:05.969Z,6.35
2023-04-19T10:33:40.315Z,6.93
2023-04-19T10:36:19.035Z,6.80
2023-04-19T10:38:57.259Z,7.60
2023-04-19T10:42:00.886Z,7.22
2023-04-19T10:44:31.573Z,7.18
2023-04-19T10:47:02.888Z,6.88
2023-04-19T10:49:33.729Z,6.78
2023-04-19T10:52:04.982Z,6.32
2023-04-19T10:54:39.013Z,6.55
2023-04-19T10:57:12.626Z,6.50
2023-04-19T11:02:29.760Z,6.00
2023-04-19T11:05:03.048Z,7.10
2023-04-19T11:07:40.462Z,6.85
2023-04-19T11:10:12.056Z,7.13
2023-04-19T11:12:46.791Z,6.88
2023-04-19T11:15:17.335Z,7.45
2023-04-19T11:18:11.433Z,7.68
2023-04-19T11:20:45.547Z,7.50
2023-04-19T11:23:19.609Z,7.72
2023-04-19T11:25:54.659Z,6.63
2023-04-19T11:28:25.657Z,6.50
2023-04-19T11:30:57.247Z,7.90
2023-04-19T11:33:28.861Z,6.75
2023-04-19T11:35:59.190Z,7.13
2023-04-19T11:38:33.467Z,7.32
2023-04-19T11:41:04.969Z,8.30
2023-04-19T11:43:46.831Z,7.82
2023-04-19T11:46:17.648Z,7.75
2023-04-19T11:48:55.467Z,8.45
2023-04-19T11:51:26.424Z,10.05
2023-04-19T11:53:56.966Z,10.20
2023-04-19T11:56:27.984Z,10.20
2023-04-19T11:59:00.271Z,11.70
2023-04-19T12:01:32.396Z,11.73
2023-04-19T12:04:03.202Z,10.98
2023-04-19T12:06:34.118Z,10.55
2023-04-19T12:09:13.722Z,10.77
2023-04-19T12:11:51.571Z,10.32
2023-04-19T12:14:24.476Z,12.07
2023-04-19T12:17:15.293Z,12.05
2023-04-19T12:19:48.171Z,12.05
2023-04-19T12:22:30.538Z,12.07
2023-04-19T12:25:01.065Z,12.00
2023-04-19T12:27:32.130Z,11.35
2023-04-19T12:30:02.517Z,13.27
2023-04-19T12:32:32.810Z,12.63
2023-04-19T12:35:04.068Z,11.63
2023-04-19T12:37:34.521Z,12.40
2023-04-19T12:40:05.601Z,12.90
2023-04-19T12:42:35.978Z,14.48
2023-04-19T12:45:06.533Z,13.15
2023-04-19T12:47:36.933Z,9.88
2023-04-19T12:50:08.002Z,11.73
2023-04-19T12:52:38.661Z,13.50
2023-04-19T12:55:09.869Z,11.98
2023-04-19T12:57:41.268Z,11.63
2023-04-19T13:00:12.606Z,12.30
2023-04-19T13:02:43.406Z,12.35
2023-04-19T13:05:14.541Z,12.82
2023-04-19T13:07:44.825Z,11.73
2023-04-19T13:10:15.249Z,12.95
2023-04-19T13:12:45.808Z,12.45
2023-04-19T13:15:16.237Z,12.02
2023-04-19T13:17:47.194Z,13.25
2023-04-19T13:20:17.698Z,12.02
2023-04-19T13:22:49.377Z,13.70
2023-04-19T13:25:20.001Z,12.90
2023-04-19T13:27:50.479Z,14.60
2023-04-19T13:30:20.833Z,12.48
2023-04-19T13:35:24.050Z,12.25
2023-04-19T13:37:54.468Z,12.93
2023-04-19T13:40:25.007Z,13.02
2023-04-19T13:42:58.229Z,13.50
2023-04-19T13:45:28.672Z,13.57
2023-04-19T13:47:59.013Z,11.43
2023-04-19T13:50:29.688Z,11.45
2023-04-19T13:53:01.063Z,12.25
2023-04-19T13:55:31.912Z,12.55
2023-04-19T13:58:02.538Z,13.02
2023-04-19T14:00:33.224Z,12.85
2023-04-19T14:03:04.049Z,12.25
2023-04-19T14:05:34.322Z,11.70
2023-04-19T14:08:05.357Z,11.50
2023-04-19T14:10:36.503Z,10.98
2023-04-19T14:13:07.107Z,12.27
2023-04-19T14:15:37.572Z,11.57
2023-04-19T14:18:08.161Z,10.90
2023-04-19T14:20:38.914Z,11.20
2023-04-19T14:23:09.963Z,11.93
2023-04-19T14:25:40.390Z,11.27
2023-04-19T14:28:10.797Z,11.80
2023-04-19T14:30:42.775Z,11.40
2023-04-19T14:33:13.479Z,12.18
2023-04-19T14:35:44.400Z,11.48
2023-04-19T14:38:14.796Z,14.30
2023-04-19T14:40:46.127Z,11.88
2023-04-19T14:43:19.695Z,11.68
2023-04-19T14:45:51.944Z,11.68
2023-04-19T14:48:22.495Z,11.65
2023-04-19T14:50:53.042Z,11.85
2023-04-19T14:53:23.298Z,12.43
2023-04-19T14:55:53.986Z,11.10
2023-04-19T14:58:24.420Z,12.05
2023-04-19T15:00:56.332Z,11.63
2023-04-19T15:03:27.424Z,13.18
2023-04-19T15:05:58.112Z,11.75
2023-04-19T15:08:30.773Z,11.30
2023-04-19T15:11:02.154Z,10.70
2023-04-19T15:13:33.307Z,12.00
2023-04-19T15:16:05.427Z,11.82
2023-04-19T15:18:36.080Z,12.00
2023-04-19T15:21:07.338Z,11.27
2023-04-19T15:23:37.877Z,11.65
2023-04-19T15:26:08.281Z,14.70
2023-04-19T15:28:39.967Z,13.38
2023-04-19T15:31:11.764Z,12.68
2023-04-19T15:33:42.277Z,11.05
2023-04-19T15:36:12.756Z,12.45
2023-04-19T15:38:44.234Z,13.20
2023-04-19T15:41:14.741Z,12.40
2023-04-19T15:43:46.045Z,12.35
2023-04-19T15:46:17.708Z,13.00
2023-04-19T15:48:49.803Z,12.00
2023-04-19T15:51:21.384Z,12.32
2023-04-19T15:53:51.914Z,13.20
2023-04-19T15:56:23.215Z,12.90
2023-04-19T15:58:54.079Z,12.50
2023-04-19T16:01:24.907Z,13.00
2023-04-19T16:03:55.472Z,12.13
2023-04-19T16:06:25.986Z,12.20
2023-04-19T16:08:57.109Z,12.80
2023-04-19T16:11:28.059Z,11.93
2023-04-19T16:13:58.258Z,11.00
2023-04-19T16:16:32.400Z,12.45
2023-04-19T16:19:03.108Z,13.73
2023-04-19T16:21:34.110Z,11.85
2023-04-19T16:24:04.455Z,15.93
2023-04-19T16:26:35.245Z,12.55
2023-04-19T16:29:05.915Z,12.45
2023-04-19T16:31:37.115Z,11.90
2023-04-19T16:34:07.560Z,12.70
2023-04-19T16:36:38.119Z,13.00
2023-04-19T16:39:08.556Z,12.52
2023-04-19T16:41:39.303Z,11.90
2023-04-19T16:44:09.910Z,15.38
2023-04-19T16:46:40.180Z,12.38
2023-04-19T16:49:10.638Z,11.23
2023-04-19T16:51:41.047Z,11.82
2023-04-19T16:54:11.461Z,12.95
2023-04-19T16:56:42.210Z,12.55
2023-04-19T16:59:12.565Z,9.57
2023-04-19T17:01:43.174Z,11.38
2023-04-19T17:04:14.015Z,10.18
2023-04-19T17:06:45.133Z,11.88
2023-04-19T17:09:15.836Z,11.95
2023-04-19T17:11:46.389Z,9.23
2023-04-19T17:14:17.350Z,8.20
2023-04-19T17:16:48.082Z,10.50
2023-04-19T17:19:19.290Z,11.13
2023-04-19T17:21:49.718Z,10.30
2023-04-19T17:24:19.984Z,8.75
2023-04-19T17:26:51.365Z,9.90
2023-04-19T17:29:21.685Z,9.02
2023-04-19T17:31:52.375Z,9.82
2023-04-19T17:34:23.175Z,9.50
2023-04-19T17:36:53.908Z,8.00
2023-04-19T17:39:24.353Z,8.25
2023-04-19T17:41:55.852Z,8.98
2023-04-19T17:44:26.937Z,8.32
2023-04-19T17:46:57.418Z,8.18
2023-04-19T17:49:28.524Z,8.55
2023-04-19T17:51:58.913Z,7.10
2023-04-19T17:54:29.136Z,8.02
2023-04-19T17:57:00.868Z,7.35
2023-04-19T17:59:32.187Z,7.28
2023-04-19T18:02:04.034Z,6.75
2023-04-19T18:04:34.838Z,7.53
2023-04-19T18:07:06.163Z,6.22
2023-04-19T18:09:36.673Z,6.55
2023-04-19T18:12:07.309Z,6.50
2023-04-19T18:14:38.085Z,6.40
2023-04-19T18:17:09.559Z,5.47
2023-04-19T18:19:39.967Z,5.10
2023-04-19T18:22:10.725Z,4.50
2023-04-19T18:24:45.351Z,5.32
2023-04-19T18:27:16.609Z,5.65
2023-04-19T18:29:47.046Z,5.32
2023-04-19T18:32:17.634Z,4.60
2023-04-19T18:34:48.965Z,5.78
2023-04-19T18:37:19.906Z,5.75
2023-04-19T18:39:50.357Z,4.95
2023-04-19T18:42:20.993Z,4.63
2023-04-19T18:44:54.178Z,4.35
2023-04-19T18:47:27.609Z,4.70
2023-04-19T18:50:05.238Z,4.50
2023-04-19T18:52:39.368Z,4.50
2023-04-19T18:55:10.253Z,4.30
2023-04-19T18:57:40.602Z,3.67
2023-04-19T19:00:12.601Z,4.40
2023-04-19T19:02:44.028Z,4.55
2023-04-19T19:05:17.271Z,3.90
2023-04-19T19:07:48.454Z,4.00
2023-04-19T19:10:21.810Z,4.20
2023-04-19T19:12:54.168Z,4.40
2023-04-19T19:15:24.449Z,4.38
2023-04-19T19:17:55.495Z,3.70
2023-04-19T19:20:26.077Z,4.00
2023-04-19T19:22:57.371Z,4.15
2023-04-19T19:25:27.917Z,4.32
2023-04-19T19:30:35.240Z,4.55
2023-04-19T19:33:06.405Z,4.05
2023-04-19T19:35:36.778Z,4.32
2023-04-19T19:38:07.035Z,4.13
2023-04-19T19:40:53.545Z,4.03
2023-04-19T19:43:28.705Z,4.60
2023-04-19T19:45:59.167Z,3.58
2023-04-19T19:48:30.478Z,4.10
2023-04-19T19:51:31.349Z,3.88
2023-04-19T19:53:52.085Z,3.67
2023-04-19T19:56:24.402Z,3.33
2023-04-19T19:58:56.417Z,4.25
2023-04-19T20:01:28.507Z,4.25
2023-04-19T20:03:59.374Z,3.92
2023-04-19T20:11:33.260Z,5.03
2023-04-19T20:14:04.230Z,3.97
2023-04-19T20:16:35.443Z,4.55
2023-04-19T20:19:11.170Z,4.38
2023-04-19T20:21:42.434Z,4.50
2023-04-19T20:24:13.593Z,4.55
2023-04-19T20:26:44.359Z,4.45
2023-04-19T20:29:14.863Z,5.28
2023-04-19T20:31:46.387Z,4.53
2023-04-19T20:34:16.940Z,5.35
2023-04-19T20:36:50.315Z,5.07
2023-04-19T20:39:21.735Z,5.53
2023-04-19T20:41:53.155Z,5.38
2023-04-19T20:44:24.375Z,4.18
2023-04-19T20:46:55.375Z,5.28
2023-04-19T20:49:25.759Z,5.43
2023-04-19T20:51:56.116Z,5.40
2023-04-19T20:54:26.755Z,6.80
2023-04-19T20:57:04.705Z,7.38
2023-04-19T20:59:35.517Z,7.00
2023-04-19T21:02:06.578Z,7.68
2023-04-19T21:04:37.680Z,7.63
2023-04-19T21:07:08.524Z,7.45
2023-04-19T21:09:39.059Z,7.43
2023-04-19T21:12:10.333Z,8.32
2023-04-19T21:14:40.674Z,8.73
2023-04-19T21:17:11.257Z,8.00
2023-04-19T21:19:41.453Z,8.35
2023-04-19T21:22:12.493Z,8.60
2023-04-19T21:24:42.921Z,8.88
2023-04-19T21:27:13.331Z,8.63
2023-04-19T21:29:43.711Z,8.80
2023-04-19T21:32:14.163Z,7.90
2023-04-19T21:34:45.627Z,8.52
2023-04-19T21:37:16.823Z,9.00
2023-04-19T21:39:47.221Z,9.57
2023-04-19T21:42:17.707Z,9.60
2023-04-19T21:44:48.326Z,8.63
2023-04-19T21:47:18.716Z,8.57
2023-04-19T21:49:49.226Z,8.75
2023-04-19T21:52:19.954Z,8.48
2023-04-19T21:54:51.276Z,9.95
2023-04-19T21:57:25.974Z,8.45
2023-04-19T21:59:56.794Z,8.35
2023-04-19T22:02:27.270Z,7.82
2023-04-19T22:05:01.669Z,9.43
2023-04-19T22:07:32.736Z,8.20
2023-04-19T22:10:03.281Z,7.47
2023-04-19T22:12:38.886Z,8.25
2023-04-19T22:15:16.435Z,7.82
2023-04-19T22:17:47.570Z,6.63
2023-04-19T22:20:19.303Z,7.05
2023-04-19T22:22:49.680Z,7.05
2023-04-19T22:25:20.408Z,6.50
2023-04-19T22:27:50.851Z,6.97
2023-04-19T22:30:21.322Z,6.65
2023-04-19T22:32:51.837Z,6.97
2023-04-19T22:35:23.213Z,6.60
2023-04-19T22:37:54.466Z,7.90
2023-04-19T22:40:25.069Z,7.60
2023-04-19T22:42:55.527Z,6.45
2023-04-19T22:45:26.491Z,6.28
2023-04-19T22:47:57.316Z,6.88
2023-04-19T22:50:27.919Z,5.97
2023-04-19T22:52:58.369Z,4.97
2023-04-19T22:55:29.114Z,7.43
2023-04-19T22:57:59.506Z,8.02
2023-04-19T23:00:30.344Z,7.25
2023-04-19T23:03:01.103Z,7.50
2023-04-19T23:05:32.468Z,7.38
2023-04-19T23:08:06.119Z,7.05
2023-04-19T23:10:39.601Z,8.60
2023-04-19T23:13:11.928Z,13.40
2023-04-19T23:15:42.392Z,9.77
2023-04-19T23:18:13.146Z,9.05
2023-04-19T23:20:43.761Z,8.60
2023-04-19T23:23:14.344Z,9.38
2023-04-19T23:25:44.967Z,8.77
2023-04-19T23:28:15.372Z,9.48
2023-04-19T23:30:45.821Z,9.20
2023-04-19T23:33:16.211Z,10.05
2023-04-19T23:35:46.606Z,10.93
2023-04-19T23:38:17.642Z,10.63
2023-04-19T23:40:48.171Z,9.70
2023-04-19T23:43:18.547Z,9.63
2023-04-19T23:45:48.964Z,11.18
2023-04-19T23:48:19.391Z,10.90
2023-04-19T23:50:49.646Z,9.93
2023-04-19T23:53:20.307Z,10.13
2023-04-19T23:55:50.878Z,9.88
2023-04-19T23:58:21.384Z,10.77
